createdAt,value
2022-08-22T00:02:08.983Z,5.40
2022-08-22T00:02:45.527Z,8.20
2022-08-22T00:02:49.713Z,5.50
2022-08-22T00:04:59.713Z,5.60
2022-08-22T00:07:47.516Z,5.50
2022-08-22T00:10:29.140Z,5.50
2022-08-22T00:13:08.292Z,6.00
2022-08-22T00:15:51.125Z,5.80
2022-08-22T00:18:50.862Z,6.20
2022-08-22T00:21:34.171Z,5.90
2022-08-22T00:24:35.024Z,5.80
2022-08-22T00:27:25.353Z,5.30
2022-08-22T00:30:15.261Z,5.40
2022-08-22T00:33:19.609Z,6.10
2022-08-22T00:36:08.966Z,5.60
2022-08-22T00:38:48.111Z,5.60
2022-08-22T00:41:47.012Z,6.30
2022-08-22T00:44:56.233Z,6.00
2022-08-22T00:47:40.093Z,6.20
2022-08-22T00:50:43.267Z,6.50
2022-08-22T00:54:16.761Z,6.00
2022-08-22T00:57:30.901Z,7.00
2022-08-22T01:00:25.071Z,7.40
2022-08-22T01:03:23.780Z,6.10
2022-08-22T01:05:59.180Z,6.70
2022-08-22T01:08:52.391Z,13.80
2022-08-22T01:11:54.815Z,10.00
2022-08-22T01:14:44.771Z,8.00
2022-08-22T01:17:29.329Z,6.60
2022-08-22T01:20:21.788Z,6.90
2022-08-22T01:23:00.698Z,6.40
2022-08-22T01:25:51.000Z,7.10
2022-08-22T01:29:10.426Z,6.90
2022-08-22T01:32:19.989Z,6.80
2022-08-22T01:35:26.471Z,6.30
2022-08-22T01:38:19.670Z,6.70
2022-08-22T01:41:20.339Z,6.80
2022-08-22T01:44:16.554Z,6.50
2022-08-22T01:47:05.347Z,6.70
2022-08-22T01:49:41.242Z,7.20
2022-08-22T01:52:21.915Z,7.00
2022-08-22T01:55:07.336Z,7.10
2022-08-22T01:57:57.520Z,5.90
2022-08-22T02:00:35.871Z,5.90
2022-08-22T02:03:22.850Z,6.50
2022-08-22T02:06:47.256Z,6.20
2022-08-22T02:09:43.745Z,6.10
2022-08-22T02:12:44.673Z,5.70
2022-08-22T02:15:27.855Z,5.70
2022-08-22T02:18:07.245Z,6.30
2022-08-22T02:20:58.299Z,5.90
2022-08-22T02:24:31.075Z,6.40
2022-08-22T02:28:09.967Z,5.80
2022-08-22T02:31:01.890Z,5.80
2022-08-22T02:33:50.222Z,6.10
2022-08-22T02:36:34.643Z,5.60
2022-08-22T02:39:23.515Z,6.40
2022-08-22T02:42:36.828Z,6.20
2022-08-22T02:45:17.718Z,6.50
2022-08-22T02:48:21.352Z,7.10
2022-08-22T02:51:38.453Z,7.50
2022-08-22T02:54:29.766Z,6.90
2022-08-22T02:57:15.103Z,6.90
2022-08-22T03:00:38.386Z,7.20
2022-08-22T03:03:27.561Z,7.50
2022-08-22T03:07:00.416Z,7.90
2022-08-22T03:09:41.086Z,6.80
2022-08-22T03:12:26.612Z,6.30
2022-08-22T03:15:23.179Z,7.20
2022-08-22T03:18:18.067Z,8.10
2022-08-22T03:21:15.342Z,7.10
2022-08-22T03:23:49.066Z,7.70
2022-08-22T03:26:23.728Z,8.20
2022-08-22T03:29:12.754Z,8.30
2022-08-22T03:32:18.527Z,7.60
2022-08-22T03:35:12.156Z,7.90
2022-08-22T03:37:46.425Z,7.70
2022-08-22T03:40:48.171Z,7.90
2022-08-22T03:43:44.078Z,8.00
2022-08-22T03:46:44.170Z,7.70
2022-08-22T03:50:08.920Z,7.70
2022-08-22T03:53:15.237Z,8.20
2022-08-22T03:56:25.340Z,8.00
2022-08-22T03:59:32.580Z,7.90
2022-08-22T04:02:45.149Z,7.40
2022-08-22T04:05:58.069Z,7.90
2022-08-22T04:08:44.012Z,8.00
2022-08-22T04:11:46.401Z,7.80
2022-08-22T04:15:02.112Z,7.90
2022-08-22T04:17:56.666Z,8.00
2022-08-22T04:21:03.385Z,7.40
2022-08-22T04:23:44.446Z,7.10
2022-08-22T04:27:16.572Z,7.60
2022-08-22T04:30:31.579Z,7.70
2022-08-22T04:33:24.960Z,7.70
2022-08-22T04:36:09.463Z,7.70
2022-08-22T04:39:03.836Z,7.50
2022-08-22T04:41:54.578Z,7.50
2022-08-22T04:44:45.060Z,7.40
2022-08-22T04:47:38.886Z,7.30
2022-08-22T04:50:31.821Z,7.60
2022-08-22T04:53:19.517Z,7.60
2022-08-22T04:55:58.126Z,7.70
2022-08-22T04:59:13.989Z,7.50
2022-08-22T05:01:56.563Z,7.70
2022-08-22T05:04:36.120Z,7.50
2022-08-22T05:07:24.414Z,7.60
2022-08-22T05:10:24.055Z,6.90
2022-08-22T05:13:44.352Z,7.10
2022-08-22T05:16:23.266Z,7.50
2022-08-22T05:19:04.140Z,7.40
2022-08-22T05:21:40.048Z,7.40
2022-08-22T05:24:28.112Z,7.50
2022-08-22T05:27:01.974Z,7.10
2022-08-22T05:29:34.275Z,7.20
2022-08-22T05:32:12.066Z,7.40
2022-08-22T05:34:47.969Z,7.80
2022-08-22T05:37:36.337Z,7.40
2022-08-22T05:40:06.978Z,7.70
2022-08-22T05:42:38.777Z,7.50
2022-08-22T05:45:12.293Z,7.20
2022-08-22T05:48:05.364Z,7.10
2022-08-22T05:50:42.574Z,7.60
2022-08-22T05:53:42.788Z,7.50
2022-08-22T05:56:29.407Z,7.20
2022-08-22T05:59:16.188Z,7.40
2022-08-22T06:02:10.531Z,7.30
2022-08-22T06:04:56.246Z,7.00
2022-08-22T06:07:40.672Z,7.30
2022-08-22T06:10:25.951Z,7.20
2022-08-22T06:13:13.128Z,7.30
2022-08-22T06:15:53.213Z,7.20
2022-08-22T06:18:30.685Z,6.80
2022-08-22T06:21:05.996Z,7.40
2022-08-22T06:23:48.568Z,7.20
2022-08-22T06:26:21.471Z,7.30
2022-08-22T06:28:57.159Z,7.50
2022-08-22T06:31:49.713Z,7.00
2022-08-22T06:34:28.248Z,7.00
2022-08-22T06:37:03.092Z,6.80
2022-08-22T06:39:37.778Z,6.10
2022-08-22T06:42:16.723Z,6.50
2022-08-22T06:45:02.074Z,6.80
2022-08-22T06:47:51.007Z,6.00
2022-08-22T06:50:37.712Z,6.90
2022-08-22T06:53:22.819Z,6.80
2022-08-22T06:56:04.035Z,6.20
2022-08-22T06:58:49.156Z,6.70
2022-08-22T07:01:27.221Z,6.10
2022-08-22T07:04:11.054Z,6.30
2022-08-22T07:06:51.276Z,7.10
2022-08-22T07:09:56.502Z,6.90
2022-08-22T07:12:33.384Z,6.20
2022-08-22T07:15:38.239Z,6.00
2022-08-22T07:18:21.164Z,7.00
2022-08-22T07:20:58.242Z,6.70
2022-08-22T07:23:47.106Z,6.50
2022-08-22T07:26:29.309Z,6.60
2022-08-22T07:29:29.143Z,6.50
2022-08-22T07:32:07.700Z,6.60
2022-08-22T07:35:23.021Z,6.80
2022-08-22T07:38:26.101Z,6.60
2022-08-22T07:41:39.933Z,6.30
2022-08-22T07:44:32.290Z,6.40
2022-08-22T07:47:18.189Z,6.90
2022-08-22T07:50:08.070Z,6.80
2022-08-22T07:52:48.340Z,7.60
2022-08-22T07:55:27.653Z,6.60
2022-08-22T07:58:04.056Z,6.30
2022-08-22T08:00:35.645Z,6.90
2022-08-22T08:03:09.625Z,6.80
2022-08-22T08:05:44.788Z,7.40
2022-08-22T08:08:29.253Z,6.30
2022-08-22T08:11:02.415Z,6.90
2022-08-22T08:13:41.916Z,6.70
2022-08-22T08:16:21.666Z,7.00
2022-08-22T08:18:54.548Z,6.50
2022-08-22T08:21:40.845Z,6.40
2022-08-22T08:24:17.129Z,6.20
2022-08-22T08:27:18.312Z,6.30
2022-08-22T08:30:24.989Z,6.80
2022-08-22T08:33:24.659Z,6.30
2022-08-22T08:36:12.699Z,6.20
2022-08-22T08:39:15.392Z,6.30
2022-08-22T08:42:02.631Z,6.90
2022-08-22T08:45:08.347Z,6.40
2022-08-22T08:48:24.379Z,6.90
2022-08-22T08:51:32.368Z,6.90
2022-08-22T08:54:44.755Z,6.40
2022-08-22T08:57:46.493Z,7.00
2022-08-22T09:00:40.180Z,6.70
2022-08-22T09:03:40.176Z,6.40
2022-08-22T09:06:31.398Z,6.30
2022-08-22T09:09:30.883Z,6.60
2022-08-22T09:12:56.210Z,6.40
2022-08-22T09:16:31.678Z,6.40
2022-08-22T09:19:57.475Z,6.60
2022-08-22T09:23:19.232Z,5.90
2022-08-22T09:26:29.346Z,6.50
2022-08-22T09:29:54.931Z,6.10
2022-08-22T09:33:10.719Z,6.80
2022-08-22T09:35:51.979Z,6.80
2022-08-22T09:38:33.501Z,6.90
2022-08-22T09:41:42.376Z,7.20
2022-08-22T09:45:01.806Z,7.50
2022-08-22T09:48:32.988Z,6.90
2022-08-22T09:51:32.631Z,6.70
2022-08-22T09:54:38.493Z,8.00
2022-08-22T09:57:22.716Z,8.20
2022-08-22T10:00:07.986Z,7.50
2022-08-22T10:02:53.940Z,8.00
2022-08-22T10:05:43.547Z,7.70
2022-08-22T10:08:38.155Z,7.80
2022-08-22T10:11:19.909Z,7.80
2022-08-22T10:14:01.861Z,7.40
2022-08-22T10:16:52.215Z,7.50
2022-08-22T10:19:46.539Z,8.10
2022-08-22T10:22:29.871Z,8.30
2022-08-22T10:25:42.177Z,8.40
2022-08-22T10:28:18.589Z,8.30
2022-08-22T10:31:13.953Z,7.40
2022-08-22T10:34:08.496Z,7.80
2022-08-22T10:37:32.327Z,7.70
2022-08-22T10:40:36.745Z,8.40
2022-08-22T10:43:31.496Z,7.70
2022-08-22T10:46:18.091Z,8.10
2022-08-22T10:49:00.667Z,8.10
2022-08-22T10:51:56.529Z,7.90
2022-08-22T10:54:54.626Z,8.50
2022-08-22T10:57:52.554Z,8.20
2022-08-22T11:00:56.815Z,8.30
2022-08-22T11:03:55.569Z,8.30
2022-08-22T11:06:34.521Z,7.90
2022-08-22T11:09:40.552Z,8.50
2022-08-22T11:12:36.103Z,8.50
2022-08-22T11:15:40.888Z,9.10
2022-08-22T11:19:01.942Z,8.80
2022-08-22T11:22:26.800Z,8.30
2022-08-22T11:25:28.671Z,8.00
2022-08-22T11:28:39.529Z,8.00
2022-08-22T11:31:47.260Z,7.30
2022-08-22T11:34:49.096Z,8.10
2022-08-22T11:37:51.366Z,8.00
2022-08-22T11:40:55.258Z,8.10
2022-08-22T11:44:09.839Z,7.20
2022-08-22T11:46:51.387Z,7.70
2022-08-22T11:49:33.486Z,7.40
2022-08-22T11:52:35.791Z,8.10
2022-08-22T11:55:20.180Z,7.90
2022-08-22T11:58:13.027Z,7.60
2022-08-22T12:00:49.633Z,7.90
2022-08-22T12:03:52.439Z,7.20
2022-08-22T12:07:18.781Z,8.10
2022-08-22T12:10:17.720Z,7.90
2022-08-22T12:13:17.584Z,8.70
2022-08-22T12:16:08.767Z,8.30
2022-08-22T12:19:15.674Z,8.40
2022-08-22T12:21:57.114Z,7.70
2022-08-22T12:25:05.307Z,8.70
2022-08-22T12:27:50.958Z,7.90
2022-08-22T12:31:02.519Z,8.40
2022-08-22T12:33:44.721Z,8.70
2022-08-22T12:36:54.422Z,8.40
2022-08-22T12:40:12.470Z,8.50
2022-08-22T12:42:55.689Z,8.50
2022-08-22T12:45:25.378Z,8.20
2022-08-22T12:48:37.857Z,8.00
2022-08-22T12:51:46.823Z,7.00
2022-08-22T12:54:28.172Z,7.80
2022-08-22T12:57:24.490Z,8.70
2022-08-22T13:00:38.019Z,7.60
2022-08-22T13:03:14.514Z,8.00
2022-08-22T13:05:56.252Z,8.20
2022-08-22T13:08:41.537Z,7.70
2022-08-22T13:11:22.463Z,8.10
2022-08-22T13:14:01.721Z,8.50
2022-08-22T13:16:51.046Z,8.70
2022-08-22T13:19:33.700Z,8.10
2022-08-22T13:22:21.260Z,8.20
2022-08-22T13:25:01.078Z,8.70
2022-08-22T13:28:05.017Z,8.00
2022-08-22T13:30:42.272Z,8.60
2022-08-22T13:33:28.409Z,8.60
2022-08-22T13:36:14.782Z,8.10
2022-08-22T13:38:56.588Z,8.20
2022-08-22T13:41:32.583Z,8.30
2022-08-22T13:44:10.308Z,8.20
2022-08-22T13:46:57.994Z,7.90
2022-08-22T13:49:53.379Z,8.40
2022-08-22T13:52:57.917Z,8.70
2022-08-22T13:55:38.888Z,8.00
2022-08-22T13:58:27.032Z,8.60
2022-08-22T14:01:19.905Z,8.10
2022-08-22T14:04:28.700Z,8.00
2022-08-22T14:07:57.241Z,7.70
2022-08-22T14:10:39.800Z,7.50
2022-08-22T14:13:29.377Z,8.50
2022-08-22T14:16:11.683Z,8.40
2022-08-22T14:18:56.425Z,7.50
2022-08-22T14:21:49.040Z,7.60
2022-08-22T14:24:35.767Z,7.50
2022-08-22T14:27:30.490Z,7.90
2022-08-22T14:30:08.180Z,8.10
2022-08-22T14:33:14.941Z,8.00
2022-08-22T14:35:53.013Z,8.20
2022-08-22T14:38:34.188Z,7.90
2022-08-22T14:41:23.462Z,7.90
2022-08-22T14:44:03.143Z,7.80
2022-08-22T14:46:46.221Z,7.90
2022-08-22T14:49:30.442Z,8.40
2022-08-22T14:52:19.762Z,7.80
2022-08-22T14:54:51.022Z,7.50
2022-08-22T14:57:21.237Z,8.30
2022-08-22T14:59:53.896Z,8.50
2022-08-22T15:02:35.210Z,8.90
2022-08-22T15:05:22.069Z,8.90
2022-08-22T15:08:00.330Z,8.20
2022-08-22T15:10:37.350Z,7.60
2022-08-22T15:13:13.026Z,7.90
2022-08-22T15:15:54.394Z,8.30
2022-08-22T15:18:33.343Z,8.00
2022-08-22T15:21:32.879Z,7.80
2022-08-22T15:24:15.448Z,8.00
2022-08-22T15:26:55.681Z,7.80
2022-08-22T15:29:33.569Z,8.50
2022-08-22T15:32:05.594Z,8.40
2022-08-22T15:34:43.319Z,8.40
2022-08-22T15:37:21.805Z,8.40
2022-08-22T15:40:15.988Z,8.40
2022-08-22T15:42:52.461Z,8.80
2022-08-22T15:45:37.629Z,8.50
2022-08-22T15:48:37.482Z,8.70
2022-08-22T15:51:11.925Z,8.30
2022-08-22T15:53:47.271Z,8.90
2022-08-22T15:56:40.210Z,8.80
2022-08-22T15:59:47.848Z,8.80
2022-08-22T16:02:57.086Z,8.80
2022-08-22T16:05:55.196Z,8.90
2022-08-22T16:08:51.432Z,8.50
2022-08-22T16:11:36.429Z,9.00
2022-08-22T16:14:51.085Z,9.30
2022-08-22T16:17:31.785Z,8.70
2022-08-22T16:20:19.346Z,8.10
2022-08-22T16:23:01.382Z,8.60
2022-08-22T16:25:49.415Z,8.60
2022-08-22T16:28:58.925Z,9.20
2022-08-22T16:31:49.163Z,9.70
2022-08-22T16:34:18.688Z,9.90
2022-08-22T16:37:16.131Z,9.00
2022-08-22T16:40:16.545Z,10.00
2022-08-22T16:42:52.731Z,9.10
2022-08-22T16:45:37.846Z,9.50
2022-08-22T16:48:36.654Z,10.00
2022-08-22T16:51:22.672Z,9.50
2022-08-22T16:54:10.483Z,10.10
2022-08-22T16:56:54.446Z,9.70
2022-08-22T16:59:48.319Z,9.70
2022-08-22T17:02:59.681Z,9.70
2022-08-22T17:05:59.931Z,9.80
2022-08-22T17:08:55.719Z,9.40
2022-08-22T17:12:14.738Z,9.10
2022-08-22T17:15:17.249Z,9.40
2022-08-22T17:18:32.473Z,9.60
2022-08-22T17:21:08.658Z,10.20
2022-08-22T17:24:36.738Z,10.00
2022-08-22T17:27:46.289Z,9.80
2022-08-22T17:30:26.464Z,10.20
2022-08-22T17:33:10.735Z,9.50
2022-08-22T17:35:52.517Z,10.20
2022-08-22T17:39:15.343Z,10.50
2022-08-22T17:42:20.928Z,10.20
2022-08-22T17:45:23.400Z,10.20
2022-08-22T17:48:36.340Z,10.50
2022-08-22T17:51:30.279Z,10.60
2022-08-22T17:54:34.849Z,10.20
2022-08-22T17:57:35.527Z,10.60
2022-08-22T18:00:18.718Z,10.70
2022-08-22T18:03:30.061Z,10.50
2022-08-22T18:06:19.298Z,9.50
2022-08-22T18:09:16.000Z,9.60
2022-08-22T18:12:03.459Z,9.90
2022-08-22T18:15:02.408Z,9.80
2022-08-22T18:17:55.859Z,9.80
2022-08-22T18:21:16.315Z,8.50
2022-08-22T18:24:00.427Z,9.30
2022-08-22T18:26:32.852Z,10.40
2022-08-22T18:29:18.396Z,9.50
2022-08-22T18:32:10.992Z,9.80
2022-08-22T18:34:48.546Z,9.70
2022-08-22T18:37:36.267Z,10.20
2022-08-22T18:40:09.366Z,10.10
2022-08-22T18:42:54.722Z,10.00
2022-08-22T18:45:49.960Z,10.60
2022-08-22T18:48:32.035Z,9.60
2022-08-22T18:51:21.249Z,9.30
2022-08-22T18:54:00.220Z,9.10
2022-08-22T18:56:58.484Z,9.40
2022-08-22T18:59:45.390Z,9.50
2022-08-22T19:03:00.833Z,9.20
2022-08-22T19:05:52.067Z,8.90
2022-08-22T19:08:40.117Z,8.00
2022-08-22T19:11:36.879Z,8.70
2022-08-22T19:14:49.060Z,8.10
2022-08-22T19:17:42.683Z,8.50
2022-08-22T19:20:53.440Z,8.10
2022-08-22T19:23:38.177Z,8.00
2022-08-22T19:26:42.088Z,8.80
2022-08-22T19:29:25.356Z,8.80
2022-08-22T19:32:02.980Z,8.70
2022-08-22T19:34:46.887Z,8.00
2022-08-22T19:37:33.722Z,7.70
2022-08-22T19:40:11.467Z,8.40
2022-08-22T19:42:45.124Z,8.60
2022-08-22T19:45:30.005Z,8.10
2022-08-22T19:48:14.115Z,8.40
2022-08-22T19:50:45.257Z,7.60
2022-08-22T19:54:00.448Z,7.60
2022-08-22T19:57:14.813Z,7.20
2022-08-22T20:00:09.551Z,7.20
2022-08-22T20:03:05.347Z,7.90
2022-08-22T20:06:13.756Z,7.40
2022-08-22T20:09:47.287Z,7.60
2022-08-22T20:13:03.331Z,7.50
2022-08-22T20:15:44.791Z,7.20
2022-08-22T20:19:14.620Z,8.00
2022-08-22T20:22:08.938Z,7.40
2022-08-22T20:24:53.729Z,7.80
2022-08-22T20:27:25.691Z,7.70
2022-08-22T20:30:23.057Z,7.40
2022-08-22T20:33:07.867Z,6.70
2022-08-22T20:35:47.013Z,7.30
2022-08-22T20:38:23.555Z,7.20
2022-08-22T20:41:21.042Z,6.70
2022-08-22T20:44:20.549Z,7.10
2022-08-22T20:46:58.788Z,6.30
2022-08-22T20:49:32.599Z,6.60
2022-08-22T20:52:09.522Z,6.90
2022-08-22T20:54:42.356Z,5.90
2022-08-22T20:57:21.695Z,5.90
2022-08-22T21:00:15.600Z,6.20
2022-08-22T21:03:00.188Z,6.00
2022-08-22T21:05:49.610Z,5.70
2022-08-22T21:08:27.325Z,6.10
2022-08-22T21:11:23.495Z,6.80
2022-08-22T21:13:54.530Z,6.80
2022-08-22T21:16:35.127Z,7.30
2022-08-22T21:19:04.578Z,7.50
2022-08-22T21:21:36.435Z,7.30
2022-08-22T21:24:10.772Z,7.90
2022-08-22T21:26:50.338Z,7.30
2022-08-22T21:29:19.706Z,7.90
2022-08-22T21:32:04.484Z,7.40
2022-08-22T21:34:45.882Z,7.70
2022-08-22T21:37:24.337Z,7.90
2022-08-22T21:40:16.329Z,8.80
2022-08-22T21:43:14.697Z,8.30
2022-08-22T21:45:47.944Z,8.40
2022-08-22T21:48:42.074Z,8.30
2022-08-22T21:51:48.031Z,8.40
2022-08-22T21:54:29.396Z,8.30
2022-08-22T21:57:17.054Z,7.40
2022-08-22T21:59:59.667Z,7.90
2022-08-22T22:02:40.554Z,8.30
2022-08-22T22:05:18.778Z,8.40
2022-08-22T22:07:49.615Z,7.80
2022-08-22T22:10:24.003Z,7.80
2022-08-22T22:12:57.924Z,8.00
2022-08-22T22:15:33.066Z,8.20
2022-08-22T22:18:02.993Z,7.80
2022-08-22T22:20:32.197Z,7.90
2022-08-22T22:23:01.621Z,8.50
2022-08-22T22:25:40.127Z,8.80
2022-08-22T22:28:23.349Z,8.60
2022-08-22T22:30:57.170Z,8.50
2022-08-22T22:33:32.276Z,8.40
2022-08-22T22:36:09.036Z,8.70
2022-08-22T22:38:40.891Z,8.60
2022-08-22T22:41:10.398Z,8.80
2022-08-22T22:43:40.297Z,8.10
2022-08-22T22:46:09.777Z,8.20
2022-08-22T22:48:39.105Z,8.00
2022-08-22T22:51:13.825Z,8.00
2022-08-22T22:53:43.909Z,8.50
2022-08-22T22:56:21.539Z,8.10
2022-08-22T22:59:00.924Z,7.70
2022-08-22T23:02:03.064Z,7.50
2022-08-22T23:04:34.592Z,7.50
2022-08-22T23:07:05.050Z,6.10
2022-08-22T23:09:38.486Z,6.30
2022-08-22T23:12:16.811Z,6.10
2022-08-22T23:14:46.179Z,7.20
2022-08-22T23:17:16.201Z,7.90
2022-08-22T23:19:46.302Z,7.90
2022-08-22T23:22:16.955Z,7.60
2022-08-22T23:24:46.563Z,7.30
2022-08-22T23:27:16.142Z,7.40
2022-08-22T23:29:45.902Z,7.80
2022-08-22T23:32:16.066Z,7.20
2022-08-22T23:34:49.250Z,7.70
2022-08-22T23:37:23.204Z,7.90
2022-08-22T23:39:52.687Z,7.30
2022-08-22T23:42:21.955Z,7.50
2022-08-22T23:44:51.269Z,7.60
2022-08-22T23:47:21.134Z,8.30
2022-08-22T23:49:50.479Z,8.50
2022-08-22T23:52:22.136Z,8.00
2022-08-22T23:54:55.871Z,7.50
2022-08-22T23:57:26.442Z,7.70
2022-08-22T23:59:58.446Z,7.60
